createdAt,value
2019-03-09T08:51:43.367Z,87.90
2019-03-09T08:54:12.646Z,89.90
2019-03-09T08:56:41.945Z,88.80
2019-03-09T08:59:11.131Z,88.90
2019-03-09T09:01:40.273Z,88.70
2019-03-09T09:04:09.415Z,88.80
2019-03-09T09:06:38.861Z,88.50
2019-03-09T09:09:08.027Z,88.20
2019-03-09T09:11:37.186Z,90.00
2019-03-09T09:14:07.255Z,88.30
2019-03-09T09:16:36.571Z,87.70
2019-03-09T09:19:06.286Z,87.50
2019-03-09T09:21:35.854Z,87.20
2019-03-09T09:24:06.285Z,87.30
2019-03-09T09:26:35.368Z,87.50
2019-03-09T09:29:04.518Z,87.60
2019-03-09T09:31:33.601Z,87.80
2019-03-09T09:34:02.771Z,90.00
2019-03-09T09:36:32.050Z,89.60
2019-03-09T09:39:01.105Z,88.70
2019-03-09T09:41:34.787Z,87.90
2019-03-09T09:44:04.121Z,90.00
2019-03-09T09:46:33.241Z,87.00
2019-03-09T09:49:02.289Z,89.40
2019-03-09T09:51:31.383Z,86.40
2019-03-09T09:54:19.640Z,86.40
2019-03-09T09:56:48.851Z,86.20
2019-03-09T09:59:18.054Z,86.10
2019-03-09T10:01:47.260Z,86.10
2019-03-09T10:04:16.464Z,86.00
2019-03-09T10:06:45.512Z,85.90
2019-03-09T10:09:14.626Z,85.80
2019-03-09T10:11:43.879Z,85.60
2019-03-09T10:14:13.045Z,85.50
2019-03-09T10:16:42.108Z,85.40
2019-03-09T10:19:11.306Z,85.40
2019-03-09T10:21:40.412Z,85.20
2019-03-09T10:24:09.496Z,86.90
2019-03-09T10:26:38.612Z,86.20
2019-03-09T10:29:07.685Z,87.70
2019-03-09T10:31:36.782Z,85.60
2019-03-09T10:34:05.852Z,85.40
2019-03-09T10:36:34.987Z,85.00
2019-03-09T10:39:05.465Z,85.10
2019-03-09T10:41:34.545Z,85.00
2019-03-09T10:44:03.689Z,85.00
2019-03-09T10:46:32.772Z,84.50
2019-03-09T10:49:01.901Z,84.70
2019-03-09T10:51:30.978Z,84.60
2019-03-09T10:54:00.197Z,84.60
2019-03-09T10:56:29.689Z,84.50
2019-03-09T10:58:59.813Z,84.50
2019-03-09T11:01:28.911Z,84.30
2019-03-09T11:03:57.991Z,84.30
2019-03-09T11:06:27.049Z,84.20
2019-03-09T11:08:56.135Z,84.30
2019-03-09T11:11:25.273Z,84.20
2019-03-09T11:13:54.367Z,84.30
2019-03-09T11:16:23.453Z,84.80
2019-03-09T11:18:52.690Z,84.00
2019-03-09T11:21:21.902Z,84.00
2019-03-09T11:23:51.119Z,83.90
2019-03-09T11:26:20.310Z,84.00
2019-03-09T11:28:49.588Z,83.80
2019-03-09T11:31:18.779Z,83.80
2019-03-09T11:33:48.035Z,84.10
2019-03-09T11:36:17.116Z,83.70
2019-03-09T11:38:46.389Z,83.70
2019-03-09T11:41:18.992Z,83.40
2019-03-09T11:43:46.338Z,83.30
2019-03-09T11:46:15.498Z,83.20
2019-03-09T11:48:44.564Z,83.00
2019-03-09T11:51:13.808Z,83.00
2019-03-09T11:53:42.913Z,82.80
2019-03-09T11:56:12.068Z,82.70
2019-03-09T11:58:41.162Z,82.80
2019-03-09T12:01:29.585Z,82.70
2019-03-09T12:03:58.668Z,87.20
2019-03-09T12:06:27.796Z,82.70
2019-03-09T14:04:24.693Z,76.60
2019-03-09T14:06:53.989Z,78.40
2019-03-09T14:09:23.341Z,79.20
2019-03-09T14:11:52.747Z,79.70
2019-03-09T14:14:22.264Z,80.90
2019-03-09T14:16:51.448Z,80.20
2019-03-09T14:19:20.505Z,80.00
2019-03-09T14:21:49.600Z,79.60
2019-03-09T14:24:18.716Z,80.50
2019-03-09T14:26:47.791Z,79.20
2019-03-09T14:29:16.930Z,79.10
2019-03-09T14:31:46.010Z,79.10
2019-03-09T14:34:15.132Z,79.50
2019-03-09T14:36:44.232Z,79.60
2019-03-09T14:39:13.328Z,79.70
2019-03-09T14:41:42.445Z,79.70
2019-03-09T14:44:11.599Z,80.00
2019-03-09T14:46:40.831Z,79.90
2019-03-09T14:49:09.991Z,80.10
2019-03-09T14:51:39.158Z,80.10
2019-03-09T14:54:08.296Z,80.20
2019-03-09T14:56:37.355Z,80.00
2019-03-09T14:59:06.477Z,79.80
2019-03-09T15:01:35.602Z,79.70
2019-03-09T15:04:04.687Z,79.70
2019-03-09T15:06:33.784Z,80.00
2019-03-09T15:09:04.743Z,83.60
2019-03-09T15:11:34.921Z,80.50
2019-03-09T15:14:04.004Z,80.20
2019-03-09T15:16:33.090Z,79.70
2019-03-09T15:19:02.176Z,80.20
2019-03-09T15:21:31.261Z,80.20
2019-03-09T15:24:00.360Z,80.20
2019-03-09T15:26:29.516Z,80.20
2019-03-09T15:28:58.574Z,80.50
2019-03-09T15:31:27.680Z,83.10
2019-03-09T15:33:56.890Z,80.30
2019-03-09T15:36:25.932Z,80.30
2019-03-09T15:38:55.072Z,80.50
2019-03-09T15:41:24.121Z,80.30
2019-03-09T15:43:53.244Z,80.40
2019-03-09T15:46:22.374Z,80.60
2019-03-09T15:48:51.692Z,80.60
2019-03-09T15:51:20.835Z,80.60
2019-03-09T15:53:49.988Z,80.40
2019-03-09T15:56:19.057Z,80.40
2019-03-09T15:58:48.152Z,80.40
2019-03-09T16:01:17.225Z,80.50
2019-03-09T16:03:46.316Z,80.40
2019-03-09T16:06:16.797Z,80.40
2019-03-09T16:08:46.083Z,80.40
2019-03-09T16:11:15.232Z,80.30
2019-03-09T16:13:44.327Z,80.30
2019-03-09T16:16:13.461Z,80.50
2019-03-09T16:18:42.627Z,80.40
2019-03-09T16:21:11.719Z,80.40
2019-03-09T16:23:40.874Z,80.30
2019-03-09T16:26:10.312Z,81.10
2019-03-09T16:28:39.431Z,80.00
2019-03-09T16:31:08.566Z,79.60
2019-03-09T16:33:37.737Z,79.40
2019-03-09T16:36:07.321Z,79.20
2019-03-09T16:38:36.406Z,79.00
2019-03-09T16:41:05.485Z,78.90
2019-03-09T16:43:34.657Z,78.90
2019-03-09T16:46:04.103Z,79.00
2019-03-09T16:48:33.230Z,79.60
2019-03-09T16:51:02.301Z,79.00
2019-03-09T16:53:31.383Z,79.10
2019-03-09T16:56:00.507Z,79.10
2019-03-09T16:58:29.589Z,79.00
2019-03-09T17:00:58.716Z,78.70
2019-03-09T17:03:27.808Z,78.40
2019-03-09T17:05:56.904Z,79.00
2019-03-09T17:08:26.001Z,79.00
2019-03-09T17:10:55.088Z,79.00
2019-03-09T17:13:25.195Z,79.00
2019-03-09T17:15:54.309Z,79.10
2019-03-09T17:18:23.412Z,79.10
2019-03-09T17:20:52.468Z,79.00
2019-03-09T17:23:21.591Z,83.90
2019-03-09T17:25:51.813Z,79.20
2019-03-09T17:28:20.888Z,79.10
2019-03-09T17:30:49.980Z,79.30
